RYR220 EKCH-EGPH
Flight info
| Callsign | RYR220 |
|---|---|
| Flight time | 1h 46m |
| Altitude | 36000 |
| Route | ODDON L975 RIDSI DCT PETIL DCT SURAT DCT AGPED |
| Aircraft | B738/M-SDE2E3FGHIRWXY/LB1 |
Departure
| Time | 2026-04-24 20:07 |
|---|---|
| Airport | Copenhagen Kastrup Airport (EKCH) |
Arrival
| Time | 2026-04-24 21:53 |
|---|---|
| Airport | Edinburgh Airport (EGPH) |
| Time | Latitude | Longitude | Altitude | Speed | Heading |
|---|---|---|---|---|---|
| 2026-04-24 19:46 | 55.62364 | 12.65051 | 25 ft | 0 kts | 276° |
| 2026-04-24 19:57 | 55.62363 | 12.65063 | 23 ft | 2 kts | 276° |
| 2026-04-24 19:57 | 55.62361 | 12.65091 | 49 ft | 2 kts | 276° |
| 2026-04-24 19:57 | 55.62360 | 12.65120 | 27 ft | 2 kts | 272° |
| 2026-04-24 19:57 | 55.62360 | 12.65149 | 27 ft | 2 kts | 271° |
| 2026-04-24 19:58 | 55.62361 | 12.65179 | 27 ft | 2 kts | 238° |
| 2026-04-24 19:58 | 55.62375 | 12.65196 | 28 ft | 2 kts | 194° |
| 2026-04-24 19:58 | 55.62387 | 12.65201 | 27 ft | 0 kts | 181° |
| 2026-04-24 20:00 | 55.62384 | 12.65201 | 25 ft | 4 kts | 181° |
| 2026-04-24 20:00 | 55.62316 | 12.65200 | 23 ft | 12 kts | 186° |
| 2026-04-24 20:00 | 55.62236 | 12.65187 | 23 ft | 11 kts | 186° |
| 2026-04-24 20:01 | 55.62167 | 12.65128 | 25 ft | 11 kts | 212° |
| 2026-04-24 20:01 | 55.62103 | 12.65056 | 24 ft | 11 kts | 213° |
| 2026-04-24 20:01 | 55.62042 | 12.64984 | 27 ft | 10 kts | 214° |
| 2026-04-24 20:01 | 55.61982 | 12.64914 | 25 ft | 10 kts | 214° |
| 2026-04-24 20:02 | 55.61926 | 12.64852 | 22 ft | 18 kts | 212° |
| 2026-04-24 20:02 | 55.61781 | 12.64692 | 25 ft | 18 kts | 213° |
| 2026-04-24 20:02 | 55.61665 | 12.64554 | 25 ft | 29 kts | 213° |
| 2026-04-24 20:02 | 55.61466 | 12.64325 | 24 ft | 34 kts | 213° |
| 2026-04-24 20:03 | 55.61282 | 12.64115 | 24 ft | 30 kts | 213° |
| 2026-04-24 20:03 | 55.61117 | 12.63925 | 25 ft | 27 kts | 213° |
| 2026-04-24 20:03 | 55.60938 | 12.63718 | 23 ft | 28 kts | 213° |
| 2026-04-24 20:03 | 55.60792 | 12.63593 | 24 ft | 27 kts | 163° |
| 2026-04-24 20:04 | 55.60712 | 12.63766 | 23 ft | 18 kts | 127° |
| 2026-04-24 20:04 | 55.60735 | 12.63953 | 24 ft | 17 kts | 39° |
| 2026-04-24 20:04 | 55.60753 | 12.63981 | 28 ft | 0 kts | 42° |
| 2026-04-24 20:06 | 55.60758 | 12.63990 | 27 ft | 9 kts | 42° |
| 2026-04-24 20:06 | 55.60944 | 12.64279 | 26 ft | 67 kts | 41° |
| 2026-04-24 20:06 | 55.61546 | 12.65201 | 22 ft | 160 kts | 41° |
| 2026-04-24 20:07 | 55.62163 | 12.66194 | 279 ft | 188 kts | 41° |
| 2026-04-24 20:07 | 55.63546 | 12.68300 | 1543 ft | 221 kts | 39° |
| 2026-04-24 20:07 | 55.64737 | 12.70417 | 2027 ft | 258 kts | 41° |
| 2026-04-24 20:07 | 55.66205 | 12.72200 | 2906 ft | 256 kts | 13° |
| 2026-04-24 20:08 | 55.67937 | 12.72339 | 4045 ft | 246 kts | 349° |
| 2026-04-24 20:08 | 55.69575 | 12.71542 | 5122 ft | 246 kts | 332° |
| 2026-04-24 20:08 | 55.71041 | 12.69966 | 6134 ft | 247 kts | 335° |
| 2026-04-24 20:08 | 55.72720 | 12.69399 | 6743 ft | 255 kts | 356° |
| 2026-04-24 20:09 | 55.74491 | 12.69285 | 7420 ft | 255 kts | 347° |
| 2026-04-24 20:09 | 55.76053 | 12.67909 | 8322 ft | 253 kts | 317° |
| 2026-04-24 20:09 | 55.77089 | 12.65372 | 9341 ft | 257 kts | 297° |
| 2026-04-24 20:09 | 55.77554 | 12.62281 | 10242 ft | 266 kts | 277° |
| 2026-04-24 20:10 | 55.77409 | 12.58958 | 11111 ft | 273 kts | 267° |
| 2026-04-24 20:10 | 55.77114 | 12.55613 | 12006 ft | 276 kts | 266° |
| 2026-04-24 20:10 | 55.76790 | 12.52236 | 12888 ft | 278 kts | 266° |
| 2026-04-24 20:10 | 55.76467 | 12.48831 | 13770 ft | 281 kts | 266° |
| 2026-04-24 20:11 | 55.76145 | 12.45299 | 14129 ft | 302 kts | 266° |
| 2026-04-24 20:11 | 55.75800 | 12.41476 | 14436 ft | 320 kts | 266° |
| 2026-04-24 20:11 | 55.75437 | 12.37532 | 15109 ft | 326 kts | 266° |
| 2026-04-24 20:11 | 55.75064 | 12.33556 | 15922 ft | 328 kts | 265° |
| 2026-04-24 20:12 | 55.74687 | 12.29552 | 16712 ft | 330 kts | 265° |
| 2026-04-24 20:12 | 55.74304 | 12.25495 | 17461 ft | 334 kts | 265° |
| 2026-04-24 20:12 | 55.73916 | 12.21405 | 18212 ft | 338 kts | 265° |
| 2026-04-24 20:12 | 55.73524 | 12.17275 | 18885 ft | 341 kts | 265° |
| 2026-04-24 20:13 | 55.73126 | 12.13088 | 19532 ft | 344 kts | 265° |
| 2026-04-24 20:13 | 55.72725 | 12.08892 | 20165 ft | 348 kts | 265° |
| 2026-04-24 20:13 | 55.72317 | 12.04637 | 20794 ft | 351 kts | 265° |
| 2026-04-24 20:13 | 55.71903 | 12.00338 | 21414 ft | 355 kts | 265° |
| 2026-04-24 20:14 | 55.71501 | 11.96165 | 21969 ft | 358 kts | 265° |
| 2026-04-24 20:14 | 55.71075 | 11.91779 | 22563 ft | 362 kts | 265° |
| 2026-04-24 20:14 | 55.70651 | 11.87418 | 23140 ft | 366 kts | 265° |
| 2026-04-24 20:14 | 55.70216 | 11.82961 | 23685 ft | 370 kts | 264° |
| 2026-04-24 20:15 | 55.69773 | 11.78445 | 24142 ft | 373 kts | 264° |
| 2026-04-24 20:15 | 55.69324 | 11.73891 | 24662 ft | 375 kts | 264° |
| 2026-04-24 20:15 | 55.68871 | 11.69318 | 25188 ft | 377 kts | 264° |
| 2026-04-24 20:15 | 55.68415 | 11.64730 | 25680 ft | 379 kts | 264° |
| 2026-04-24 20:16 | 55.67955 | 11.60116 | 26157 ft | 382 kts | 264° |
| 2026-04-24 20:16 | 55.67490 | 11.55471 | 26663 ft | 383 kts | 264° |
| 2026-04-24 20:16 | 55.67023 | 11.50829 | 27279 ft | 381 kts | 263° |
| 2026-04-24 20:16 | 55.66557 | 11.46226 | 27978 ft | 378 kts | 263° |
| 2026-04-24 20:17 | 55.66095 | 11.41667 | 28623 ft | 375 kts | 263° |
| 2026-04-24 20:17 | 55.65170 | 11.32584 | 29797 ft | 373 kts | 263° |
| 2026-04-24 20:17 | 55.64708 | 11.28078 | 30362 ft | 371 kts | 263° |
| 2026-04-24 20:18 | 55.64401 | 11.25083 | 30538 ft | 376 kts | 263° |
| 2026-04-24 20:18 | 55.63769 | 11.18923 | 30607 ft | 389 kts | 263° |
| 2026-04-24 20:18 | 55.62770 | 11.09266 | 30764 ft | 407 kts | 262° |
| 2026-04-24 20:19 | 55.61733 | 10.99365 | 30905 ft | 423 kts | 262° |
| 2026-04-24 20:19 | 55.60637 | 10.88999 | 31232 ft | 432 kts | 262° |
| 2026-04-24 20:20 | 55.60082 | 10.83784 | 31607 ft | 431 kts | 262° |
| 2026-04-24 20:20 | 55.59529 | 10.78600 | 32056 ft | 428 kts | 262° |
| 2026-04-24 20:20 | 55.58976 | 10.73441 | 32474 ft | 426 kts | 262° |
| 2026-04-24 20:20 | 55.58610 | 10.70037 | 32704 ft | 426 kts | 262° |
| 2026-04-24 20:21 | 55.58152 | 10.64864 | 33023 ft | 424 kts | 268° |
| 2026-04-24 20:21 | 55.58161 | 10.57999 | 33499 ft | 421 kts | 274° |
| 2026-04-24 20:21 | 55.58245 | 10.54511 | 33767 ft | 420 kts | 274° |
| 2026-04-24 20:21 | 55.58402 | 10.47691 | 34198 ft | 419 kts | 274° |
| 2026-04-24 20:22 | 55.58476 | 10.44210 | 34371 ft | 419 kts | 274° |
| 2026-04-24 20:22 | 55.58575 | 10.39058 | 34621 ft | 420 kts | 274° |
| 2026-04-24 20:22 | 55.58665 | 10.33966 | 34888 ft | 420 kts | 274° |
| 2026-04-24 20:22 | 55.58752 | 10.28796 | 35165 ft | 419 kts | 274° |
| 2026-04-24 20:23 | 55.58835 | 10.23629 | 35370 ft | 421 kts | 273° |
| 2026-04-24 20:23 | 55.58918 | 10.18423 | 35414 ft | 426 kts | 273° |
| 2026-04-24 20:23 | 55.59080 | 10.07853 | 35587 ft | 432 kts | 273° |
| 2026-04-24 20:24 | 55.59311 | 9.97350 | 35853 ft | 433 kts | 278° |
| 2026-04-24 20:24 | 55.59722 | 9.92158 | 36034 ft | 433 kts | 280° |
| 2026-04-24 20:24 | 55.60206 | 9.86886 | 36020 ft | 435 kts | 281° |
| 2026-04-24 20:25 | 55.61209 | 9.76364 | 36027 ft | 432 kts | 280° |
| 2026-04-24 20:25 | 55.62168 | 9.65926 | 36033 ft | 429 kts | 280° |
| 2026-04-24 20:26 | 55.63090 | 9.55496 | 36045 ft | 428 kts | 280° |
| 2026-04-24 20:26 | 55.63994 | 9.45043 | 36041 ft | 429 kts | 279° |
| 2026-04-24 20:27 | 55.64887 | 9.34585 | 36060 ft | 431 kts | 279° |
| 2026-04-24 20:27 | 55.65777 | 9.24051 | 36054 ft | 432 kts | 279° |
| 2026-04-24 20:28 | 55.66653 | 9.13571 | 36053 ft | 433 kts | 279° |
| 2026-04-24 20:28 | 55.67528 | 9.02996 | 36046 ft | 434 kts | 279° |
| 2026-04-24 20:29 | 55.68382 | 8.92572 | 36048 ft | 435 kts | 279° |
| 2026-04-24 20:29 | 55.69243 | 8.81937 | 36057 ft | 435 kts | 279° |
| 2026-04-24 20:30 | 55.70097 | 8.71281 | 36071 ft | 436 kts | 279° |
| 2026-04-24 20:30 | 55.70940 | 8.60633 | 36070 ft | 436 kts | 279° |
| 2026-04-24 20:31 | 55.71775 | 8.49966 | 36085 ft | 437 kts | 279° |
| 2026-04-24 20:31 | 55.72596 | 8.39352 | 36078 ft | 437 kts | 279° |
| 2026-04-24 20:32 | 55.73413 | 8.28674 | 36100 ft | 437 kts | 279° |
| 2026-04-24 20:32 | 55.74221 | 8.17977 | 36095 ft | 437 kts | 279° |
| 2026-04-24 20:33 | 55.75021 | 8.07276 | 36103 ft | 437 kts | 279° |
| 2026-04-24 20:33 | 55.75796 | 7.96771 | 36102 ft | 437 kts | 278° |
| 2026-04-24 20:34 | 55.76577 | 7.86060 | 36100 ft | 437 kts | 279° |
| 2026-04-24 20:34 | 55.77342 | 7.75435 | 36113 ft | 436 kts | 279° |
| 2026-04-24 20:35 | 55.78103 | 7.64736 | 36120 ft | 436 kts | 278° |
| 2026-04-24 20:35 | 55.78855 | 7.54025 | 36124 ft | 437 kts | 278° |
| 2026-04-24 20:36 | 55.79598 | 7.43311 | 36124 ft | 436 kts | 278° |
| 2026-04-24 20:36 | 55.80331 | 7.32604 | 36111 ft | 437 kts | 278° |
| 2026-04-24 20:37 | 55.81056 | 7.21864 | 36125 ft | 437 kts | 278° |
| 2026-04-24 20:37 | 55.81771 | 7.11136 | 36130 ft | 437 kts | 278° |
| 2026-04-24 20:38 | 55.82458 | 7.00687 | 36141 ft | 438 kts | 278° |
| 2026-04-24 20:38 | 55.83141 | 6.90166 | 36142 ft | 437 kts | 278° |
| 2026-04-24 20:39 | 55.83829 | 6.79409 | 36144 ft | 437 kts | 278° |
| 2026-04-24 20:39 | 55.84511 | 6.68613 | 36148 ft | 438 kts | 278° |
| 2026-04-24 20:40 | 55.85182 | 6.57831 | 36152 ft | 438 kts | 278° |
| 2026-04-24 20:40 | 55.85842 | 6.47049 | 36159 ft | 439 kts | 277° |
| 2026-04-24 20:41 | 55.86495 | 6.36242 | 36161 ft | 439 kts | 278° |
| 2026-04-24 20:41 | 55.87139 | 6.25419 | 36164 ft | 439 kts | 277° |
| 2026-04-24 20:42 | 55.87770 | 6.14662 | 36160 ft | 439 kts | 277° |
| 2026-04-24 20:42 | 55.88395 | 6.03834 | 36180 ft | 440 kts | 277° |
| 2026-04-24 20:43 | 55.89003 | 5.93155 | 36179 ft | 441 kts | 277° |
| 2026-04-24 20:43 | 55.89616 | 5.82205 | 36194 ft | 446 kts | 277° |
| 2026-04-24 20:44 | 55.90222 | 5.71185 | 36182 ft | 447 kts | 277° |
| 2026-04-24 20:44 | 55.90818 | 5.60162 | 36178 ft | 446 kts | 277° |
| 2026-04-24 20:45 | 55.91402 | 5.49204 | 36191 ft | 447 kts | 277° |
| 2026-04-24 20:45 | 55.91980 | 5.38145 | 36190 ft | 448 kts | 277° |
| 2026-04-24 20:46 | 55.92549 | 5.27083 | 36189 ft | 447 kts | 277° |
| 2026-04-24 20:46 | 55.93107 | 5.16042 | 36199 ft | 446 kts | 277° |
| 2026-04-24 20:47 | 55.93657 | 5.04987 | 36198 ft | 446 kts | 277° |
| 2026-04-24 20:47 | 55.93968 | 4.94093 | 36213 ft | 447 kts | 271° |
| 2026-04-24 20:48 | 55.93812 | 4.82976 | 36210 ft | 448 kts | 270° |
| 2026-04-24 20:48 | 55.93611 | 4.71859 | 36212 ft | 448 kts | 270° |
| 2026-04-24 20:49 | 55.93444 | 4.60750 | 36213 ft | 448 kts | 271° |
| 2026-04-24 20:49 | 55.93292 | 4.49700 | 36208 ft | 448 kts | 271° |
| 2026-04-24 20:50 | 55.93133 | 4.38563 | 36222 ft | 448 kts | 271° |
| 2026-04-24 20:50 | 55.92964 | 4.27439 | 36222 ft | 449 kts | 270° |
| 2026-04-24 20:51 | 55.92784 | 4.16359 | 36229 ft | 449 kts | 270° |
| 2026-04-24 20:51 | 55.92593 | 4.05214 | 36229 ft | 449 kts | 270° |
| 2026-04-24 20:52 | 55.92396 | 3.94260 | 36214 ft | 449 kts | 270° |
| 2026-04-24 20:52 | 55.92185 | 3.83124 | 36232 ft | 449 kts | 270° |
| 2026-04-24 20:53 | 55.91965 | 3.72048 | 36229 ft | 449 kts | 270° |
| 2026-04-24 20:53 | 55.91736 | 3.60894 | 36229 ft | 450 kts | 270° |
| 2026-04-24 20:54 | 55.91454 | 3.49746 | 36229 ft | 451 kts | 266° |
| 2026-04-24 20:54 | 55.90263 | 3.38730 | 36225 ft | 453 kts | 260° |
| 2026-04-24 20:55 | 55.88848 | 3.27774 | 36239 ft | 453 kts | 260° |
| 2026-04-24 20:55 | 55.87449 | 3.16820 | 36240 ft | 453 kts | 260° |
| 2026-04-24 20:56 | 55.86075 | 3.05873 | 36248 ft | 453 kts | 260° |
| 2026-04-24 20:56 | 55.84735 | 2.95164 | 36251 ft | 453 kts | 260° |
| 2026-04-24 20:57 | 55.83356 | 2.84219 | 36256 ft | 453 kts | 260° |
| 2026-04-24 20:57 | 55.81969 | 2.73293 | 36251 ft | 453 kts | 260° |
| 2026-04-24 20:58 | 55.80571 | 2.62369 | 36258 ft | 453 kts | 260° |
| 2026-04-24 20:58 | 55.79164 | 2.51467 | 36259 ft | 453 kts | 260° |
| 2026-04-24 20:59 | 55.77745 | 2.40557 | 36264 ft | 453 kts | 260° |
| 2026-04-24 20:59 | 55.76318 | 2.29665 | 36264 ft | 453 kts | 260° |
| 2026-04-24 21:00 | 55.74880 | 2.18756 | 36272 ft | 454 kts | 259° |
| 2026-04-24 21:00 | 55.73424 | 2.07808 | 36271 ft | 456 kts | 259° |
| 2026-04-24 21:01 | 55.71979 | 1.97030 | 36270 ft | 457 kts | 259° |
| 2026-04-24 21:01 | 55.70497 | 1.86044 | 36267 ft | 458 kts | 259° |
| 2026-04-24 21:02 | 55.69000 | 1.75032 | 36266 ft | 458 kts | 259° |
| 2026-04-24 21:02 | 55.67498 | 1.64068 | 36252 ft | 457 kts | 259° |
| 2026-04-24 21:03 | 55.65989 | 1.53130 | 36270 ft | 456 kts | 259° |
| 2026-04-24 21:03 | 55.64485 | 1.42302 | 36278 ft | 456 kts | 259° |
| 2026-04-24 21:04 | 55.62960 | 1.31403 | 36278 ft | 455 kts | 259° |
| 2026-04-24 21:04 | 55.61686 | 1.22354 | 36273 ft | 456 kts | 259° |
| 2026-04-24 21:05 | 55.60147 | 1.11493 | 36260 ft | 456 kts | 259° |
| 2026-04-24 21:05 | 55.58594 | 1.00616 | 36269 ft | 455 kts | 259° |
| 2026-04-24 21:06 | 55.57059 | 0.89936 | 36275 ft | 455 kts | 258° |
| 2026-04-24 21:06 | 55.55491 | 0.79100 | 36277 ft | 455 kts | 258° |
| 2026-04-24 21:07 | 55.53914 | 0.68270 | 36275 ft | 455 kts | 258° |
| 2026-04-24 21:07 | 55.52333 | 0.57499 | 36275 ft | 455 kts | 258° |
| 2026-04-24 21:08 | 55.50736 | 0.46685 | 36276 ft | 456 kts | 258° |
| 2026-04-24 21:08 | 55.49124 | 0.35839 | 36280 ft | 457 kts | 258° |
| 2026-04-24 21:09 | 55.47497 | 0.24974 | 36274 ft | 457 kts | 258° |
| 2026-04-24 21:09 | 55.45873 | 0.14201 | 36273 ft | 458 kts | 258° |
| 2026-04-24 21:10 | 55.44226 | 0.03341 | 36275 ft | 458 kts | 258° |
| 2026-04-24 21:10 | 55.42600 | -0.07295 | 36116 ft | 449 kts | 258° |
| 2026-04-24 21:11 | 55.41785 | -0.12598 | 35390 ft | 448 kts | 258° |
| 2026-04-24 21:11 | 55.40975 | -0.17857 | 34865 ft | 444 kts | 257° |
| 2026-04-24 21:11 | 55.39355 | -0.28339 | 34982 ft | 448 kts | 257° |
| 2026-04-24 21:12 | 55.37692 | -0.39043 | 35002 ft | 458 kts | 257° |
| 2026-04-24 21:12 | 55.36000 | -0.49845 | 34988 ft | 463 kts | 257° |
| 2026-04-24 21:13 | 55.34283 | -0.60716 | 34980 ft | 459 kts | 257° |
| 2026-04-24 21:13 | 55.32569 | -0.71509 | 34983 ft | 458 kts | 257° |
| 2026-04-24 21:14 | 55.31714 | -0.76859 | 34763 ft | 449 kts | 257° |
| 2026-04-24 21:14 | 55.30872 | -0.82115 | 34048 ft | 447 kts | 257° |
| 2026-04-24 21:14 | 55.30025 | -0.87404 | 32998 ft | 453 kts | 257° |
| 2026-04-24 21:14 | 55.29175 | -0.92698 | 31816 ft | 461 kts | 256° |
| 2026-04-24 21:15 | 55.28284 | -0.98227 | 30558 ft | 470 kts | 256° |
| 2026-04-24 21:15 | 55.27427 | -1.03518 | 29596 ft | 469 kts | 256° |
| 2026-04-24 21:15 | 55.26535 | -1.08998 | 28639 ft | 469 kts | 256° |
| 2026-04-24 21:15 | 55.25629 | -1.14552 | 27693 ft | 478 kts | 255° |
| 2026-04-24 21:16 | 55.24704 | -1.20210 | 26837 ft | 484 kts | 255° |
| 2026-04-24 21:16 | 55.23772 | -1.25883 | 26564 ft | 485 kts | 255° |
| 2026-04-24 21:16 | 55.22836 | -1.31563 | 26434 ft | 486 kts | 255° |
| 2026-04-24 21:16 | 55.21893 | -1.37273 | 26313 ft | 488 kts | 255° |
| 2026-04-24 21:17 | 55.20946 | -1.42981 | 26261 ft | 487 kts | 255° |
| 2026-04-24 21:17 | 55.20013 | -1.48594 | 26266 ft | 486 kts | 255° |
| 2026-04-24 21:17 | 55.19063 | -1.54288 | 26263 ft | 487 kts | 255° |
| 2026-04-24 21:17 | 55.18111 | -1.59974 | 26262 ft | 487 kts | 255° |
| 2026-04-24 21:18 | 55.17155 | -1.65668 | 26252 ft | 487 kts | 255° |
| 2026-04-24 21:18 | 55.16200 | -1.71343 | 26255 ft | 487 kts | 255° |
| 2026-04-24 21:18 | 55.15239 | -1.77034 | 26268 ft | 486 kts | 255° |
| 2026-04-24 21:18 | 55.14277 | -1.82717 | 26259 ft | 486 kts | 254° |
| 2026-04-24 21:19 | 55.13360 | -1.88396 | 26252 ft | 486 kts | 259° |
| 2026-04-24 21:19 | 55.13184 | -1.94246 | 26279 ft | 483 kts | 277° |
| 2026-04-24 21:19 | 55.13906 | -1.99946 | 26253 ft | 482 kts | 291° |
| 2026-04-24 21:19 | 55.15324 | -2.05027 | 26277 ft | 480 kts | 300° |
| 2026-04-24 21:20 | 55.18617 | -2.14774 | 26072 ft | 445 kts | 301° |
| 2026-04-24 21:20 | 55.20168 | -2.19337 | 25966 ft | 426 kts | 301° |
| 2026-04-24 21:20 | 55.21640 | -2.23724 | 25857 ft | 410 kts | 300° |
| 2026-04-24 21:21 | 55.23028 | -2.27909 | 25768 ft | 394 kts | 300° |
| 2026-04-24 21:21 | 55.24371 | -2.31998 | 25696 ft | 380 kts | 300° |
| 2026-04-24 21:21 | 55.25660 | -2.35946 | 25619 ft | 367 kts | 300° |
| 2026-04-24 21:21 | 55.26905 | -2.39772 | 25514 ft | 355 kts | 300° |
| 2026-04-24 21:22 | 55.28118 | -2.43511 | 25214 ft | 350 kts | 300° |
| 2026-04-24 21:22 | 55.29322 | -2.47224 | 24797 ft | 350 kts | 300° |
| 2026-04-24 21:22 | 55.30522 | -2.50934 | 24395 ft | 349 kts | 300° |
| 2026-04-24 21:22 | 55.31721 | -2.54644 | 24028 ft | 348 kts | 300° |
| 2026-04-24 21:23 | 55.32911 | -2.58333 | 23641 ft | 346 kts | 300° |
| 2026-04-24 21:23 | 55.34092 | -2.61999 | 23238 ft | 343 kts | 300° |
| 2026-04-24 21:23 | 55.35263 | -2.65638 | 22839 ft | 341 kts | 300° |
| 2026-04-24 21:23 | 55.36429 | -2.69266 | 22441 ft | 339 kts | 300° |
| 2026-04-24 21:24 | 55.37582 | -2.72861 | 22046 ft | 336 kts | 300° |
| 2026-04-24 21:24 | 55.38717 | -2.76405 | 21509 ft | 331 kts | 299° |
| 2026-04-24 21:24 | 55.39832 | -2.79893 | 20842 ft | 331 kts | 299° |
| 2026-04-24 21:24 | 55.40954 | -2.83409 | 20231 ft | 329 kts | 299° |
| 2026-04-24 21:25 | 55.42073 | -2.86914 | 19690 ft | 326 kts | 299° |
| 2026-04-24 21:25 | 55.43176 | -2.90377 | 19135 ft | 323 kts | 299° |
| 2026-04-24 21:25 | 55.44270 | -2.93819 | 18596 ft | 320 kts | 299° |
| 2026-04-24 21:25 | 55.45380 | -2.97140 | 18242 ft | 306 kts | 309° |
| 2026-04-24 21:26 | 55.46814 | -2.99590 | 18289 ft | 286 kts | 325° |
| 2026-04-24 21:26 | 55.48597 | -3.01129 | 17207 ft | 305 kts | 340° |
| 2026-04-24 21:26 | 55.50638 | -3.02294 | 16464 ft | 310 kts | 342° |
| 2026-04-24 21:26 | 55.52693 | -3.03385 | 15916 ft | 307 kts | 342° |
| 2026-04-24 21:27 | 55.54701 | -3.04448 | 15246 ft | 306 kts | 342° |
| 2026-04-24 21:27 | 55.56840 | -3.05599 | 13594 ft | 332 kts | 342° |
| 2026-04-24 21:27 | 55.59129 | -3.06850 | 12350 ft | 345 kts | 342° |
| 2026-04-24 21:27 | 55.61304 | -3.08047 | 12402 ft | 315 kts | 342° |
| 2026-04-24 21:28 | 55.63335 | -3.09172 | 12249 ft | 296 kts | 342° |
| 2026-04-24 21:28 | 55.65235 | -3.10229 | 12121 ft | 278 kts | 342° |
| 2026-04-24 21:28 | 55.66993 | -3.11209 | 11966 ft | 264 kts | 341° |
| 2026-04-24 21:28 | 55.68728 | -3.12177 | 11560 ft | 260 kts | 341° |
| 2026-04-24 21:29 | 55.70431 | -3.13245 | 11081 ft | 259 kts | 331° |
| 2026-04-24 21:29 | 55.71741 | -3.15388 | 10601 ft | 259 kts | 303° |
| 2026-04-24 21:29 | 55.72509 | -3.18248 | 10186 ft | 258 kts | 289° |
| 2026-04-24 21:29 | 55.73019 | -3.21290 | 9710 ft | 257 kts | 286° |
| 2026-04-24 21:30 | 55.73477 | -3.24346 | 9251 ft | 255 kts | 286° |
| 2026-04-24 21:30 | 55.73924 | -3.27351 | 8808 ft | 254 kts | 286° |
| 2026-04-24 21:30 | 55.74378 | -3.30370 | 8337 ft | 254 kts | 286° |
| 2026-04-24 21:30 | 55.74841 | -3.33404 | 7836 ft | 255 kts | 286° |
| 2026-04-24 21:31 | 55.75308 | -3.36436 | 7345 ft | 255 kts | 286° |
| 2026-04-24 21:31 | 55.75779 | -3.39480 | 6854 ft | 255 kts | 286° |
| 2026-04-24 21:31 | 55.76252 | -3.42523 | 6355 ft | 256 kts | 286° |
| 2026-04-24 21:31 | 55.76725 | -3.45567 | 5848 ft | 256 kts | 286° |
| 2026-04-24 21:32 | 55.77199 | -3.48614 | 5348 ft | 256 kts | 286° |
| 2026-04-24 21:32 | 55.77674 | -3.51666 | 4845 ft | 256 kts | 286° |
| 2026-04-24 21:32 | 55.78149 | -3.54722 | 4330 ft | 256 kts | 286° |
| 2026-04-24 21:32 | 55.78617 | -3.57736 | 4052 ft | 247 kts | 286° |
| 2026-04-24 21:33 | 55.79057 | -3.60574 | 3998 ft | 229 kts | 286° |
| 2026-04-24 21:33 | 55.79327 | -3.62322 | 4005 ft | 214 kts | 286° |
| 2026-04-24 21:33 | 55.79825 | -3.65549 | 3976 ft | 191 kts | 286° |
| 2026-04-24 21:33 | 55.80166 | -3.67761 | 3977 ft | 183 kts | 286° |
| 2026-04-24 21:34 | 55.80506 | -3.69899 | 3989 ft | 181 kts | 291° |
| 2026-04-24 21:34 | 55.81280 | -3.71572 | 4000 ft | 178 kts | 334° |
| 2026-04-24 21:34 | 55.82486 | -3.71844 | 3994 ft | 178 kts | 14° |
| 2026-04-24 21:34 | 55.83468 | -3.70598 | 4005 ft | 177 kts | 54° |
| 2026-04-24 21:35 | 55.84223 | -3.68806 | 3946 ft | 186 kts | 51° |
| 2026-04-24 21:35 | 55.84976 | -3.66910 | 3702 ft | 185 kts | 57° |
| 2026-04-24 21:35 | 55.85626 | -3.64998 | 3472 ft | 175 kts | 58° |
| 2026-04-24 21:35 | 55.86239 | -3.63168 | 3232 ft | 168 kts | 58° |
| 2026-04-24 21:36 | 55.86814 | -3.61457 | 3059 ft | 156 kts | 58° |
| 2026-04-24 21:36 | 55.87374 | -3.59798 | 2825 ft | 154 kts | 58° |
| 2026-04-24 21:36 | 55.87918 | -3.58184 | 2594 ft | 151 kts | 58° |
| 2026-04-24 21:36 | 55.88461 | -3.56575 | 2436 ft | 151 kts | 58° |
| 2026-04-24 21:37 | 55.89013 | -3.54940 | 2224 ft | 157 kts | 58° |
| 2026-04-24 21:37 | 55.89580 | -3.53263 | 2018 ft | 158 kts | 58° |
| 2026-04-24 21:37 | 55.90140 | -3.51605 | 1794 ft | 154 kts | 58° |
| 2026-04-24 21:37 | 55.90684 | -3.49994 | 1629 ft | 151 kts | 58° |
| 2026-04-24 21:38 | 55.91229 | -3.48383 | 1410 ft | 151 kts | 59° |
| 2026-04-24 21:38 | 55.91773 | -3.46773 | 1168 ft | 151 kts | 59° |
| 2026-04-24 21:38 | 55.92303 | -3.45207 | 1002 ft | 147 kts | 59° |
| 2026-04-24 21:38 | 55.92817 | -3.43688 | 811 ft | 141 kts | 59° |
| 2026-04-24 21:39 | 55.93324 | -3.42191 | 641 ft | 141 kts | 59° |
| 2026-04-24 21:39 | 55.93830 | -3.40697 | 430 ft | 140 kts | 59° |
| 2026-04-24 21:39 | 55.94328 | -3.39228 | 270 ft | 138 kts | 59° |
| 2026-04-24 21:39 | 55.94819 | -3.37793 | 129 ft | 136 kts | 60° |
| 2026-04-24 21:40 | 55.95317 | -3.36356 | 299 ft | 150 kts | 59° |
| 2026-04-24 21:40 | 55.95847 | -3.34892 | 1469 ft | 149 kts | 54° |
| 2026-04-24 21:40 | 55.96614 | -3.33576 | 2371 ft | 160 kts | 33° |
| 2026-04-24 21:40 | 55.97689 | -3.32440 | 2932 ft | 195 kts | 21° |
| 2026-04-24 21:41 | 55.98956 | -3.31896 | 3548 ft | 190 kts | 2° |
| 2026-04-24 21:41 | 56.00252 | -3.32241 | 4246 ft | 200 kts | 329° |
| 2026-04-24 21:41 | 56.01120 | -3.34098 | 4986 ft | 197 kts | 288° |
| 2026-04-24 21:41 | 56.01167 | -3.36472 | 6089 ft | 183 kts | 263° |
| 2026-04-24 21:42 | 56.00879 | -3.38825 | 6515 ft | 210 kts | 253° |
| 2026-04-24 21:42 | 56.00167 | -3.41165 | 6507 ft | 218 kts | 227° |
| 2026-04-24 21:42 | 55.99093 | -3.42988 | 6454 ft | 207 kts | 233° |
| 2026-04-24 21:42 | 55.98302 | -3.45064 | 6282 ft | 199 kts | 239° |
| 2026-04-24 21:43 | 55.97582 | -3.47154 | 5990 ft | 197 kts | 240° |
| 2026-04-24 21:43 | 55.96872 | -3.49248 | 5683 ft | 196 kts | 240° |
| 2026-04-24 21:43 | 55.96189 | -3.51288 | 5395 ft | 196 kts | 240° |
| 2026-04-24 21:43 | 55.95494 | -3.53376 | 5102 ft | 196 kts | 240° |
| 2026-04-24 21:44 | 55.94801 | -3.55474 | 4796 ft | 196 kts | 240° |
| 2026-04-24 21:44 | 55.94110 | -3.57566 | 4501 ft | 195 kts | 240° |
| 2026-04-24 21:44 | 55.93430 | -3.59626 | 4229 ft | 191 kts | 240° |
| 2026-04-24 21:44 | 55.92753 | -3.61672 | 4028 ft | 193 kts | 240° |
| 2026-04-24 21:45 | 55.92062 | -3.63754 | 4005 ft | 196 kts | 240° |
| 2026-04-24 21:45 | 55.91372 | -3.65832 | 3992 ft | 193 kts | 240° |
| 2026-04-24 21:45 | 55.90690 | -3.67894 | 3985 ft | 193 kts | 240° |
| 2026-04-24 21:45 | 55.90006 | -3.69955 | 3992 ft | 193 kts | 240° |
| 2026-04-24 21:46 | 55.89325 | -3.71985 | 3991 ft | 193 kts | 235° |
| 2026-04-24 21:46 | 55.88280 | -3.73296 | 3987 ft | 178 kts | 191° |
| 2026-04-24 21:46 | 55.87119 | -3.73721 | 3976 ft | 165 kts | 195° |
| 2026-04-24 21:46 | 55.86053 | -3.74266 | 3991 ft | 159 kts | 197° |
| 2026-04-24 21:47 | 55.85005 | -3.74780 | 4008 ft | 153 kts | 188° |
| 2026-04-24 21:47 | 55.84312 | -3.74653 | 3980 ft | 152 kts | 160° |
| 2026-04-24 21:47 | 55.83319 | -3.73032 | 3986 ft | 151 kts | 102° |
| 2026-04-24 21:47 | 55.83526 | -3.71323 | 4033 ft | 146 kts | 53° |
| 2026-04-24 21:48 | 55.84081 | -3.69740 | 4000 ft | 152 kts | 65° |
| 2026-04-24 21:48 | 55.84565 | -3.68040 | 3855 ft | 153 kts | 57° |
| 2026-04-24 21:48 | 55.85124 | -3.66442 | 3645 ft | 150 kts | 57° |
| 2026-04-24 21:48 | 55.85664 | -3.64865 | 3445 ft | 148 kts | 58° |
| 2026-04-24 21:49 | 55.86194 | -3.63298 | 3262 ft | 148 kts | 58° |
| 2026-04-24 21:49 | 55.86729 | -3.61710 | 3070 ft | 150 kts | 58° |
| 2026-04-24 21:49 | 55.87269 | -3.60111 | 2862 ft | 151 kts | 58° |
| 2026-04-24 21:49 | 55.87808 | -3.58511 | 2668 ft | 151 kts | 58° |
| 2026-04-24 21:50 | 55.88165 | -3.57453 | 2541 ft | 150 kts | 58° |
| 2026-04-24 21:50 | 55.88712 | -3.55832 | 2359 ft | 156 kts | 58° |
| 2026-04-24 21:50 | 55.89273 | -3.54170 | 2128 ft | 156 kts | 58° |
| 2026-04-24 21:50 | 55.89830 | -3.52520 | 1922 ft | 156 kts | 58° |
| 2026-04-24 21:51 | 55.90395 | -3.50850 | 1716 ft | 157 kts | 58° |
| 2026-04-24 21:51 | 55.90954 | -3.49196 | 1500 ft | 154 kts | 59° |
| 2026-04-24 21:51 | 55.91497 | -3.47588 | 1304 ft | 151 kts | 59° |
| 2026-04-24 21:51 | 55.92038 | -3.45992 | 1087 ft | 150 kts | 59° |
| 2026-04-24 21:52 | 55.92566 | -3.44429 | 909 ft | 146 kts | 59° |
| 2026-04-24 21:52 | 55.93094 | -3.42870 | 724 ft | 148 kts | 59° |
| 2026-04-24 21:52 | 55.93629 | -3.41293 | 516 ft | 148 kts | 59° |
| 2026-04-24 21:52 | 55.94149 | -3.39741 | 323 ft | 145 kts | 61° |
| 2026-04-24 21:53 | 55.94691 | -3.38249 | 164 ft | 138 kts | 60° |
| 2026-04-24 21:53 | 55.95121 | -3.36908 | 108 ft | 102 kts | 58° |
| 2026-04-24 21:53 | 55.95308 | -3.36354 | 99 ft | 0 kts | 60° |